sensor_id;sensor_type;location;lat;lon;timestamp;P1;durP1;ratioP1;P2;durP2;ratioP2
7316;SDS011;3699;51.462;6.696;2023-07-08T00:01:58;6.80;;;3.67;;
7316;SDS011;3699;51.462;6.696;2023-07-08T00:04:25;5.47;;;4.00;;
7316;SDS011;3699;51.462;6.696;2023-07-08T00:06:52;8.63;;;4.07;;
7316;SDS011;3699;51.462;6.696;2023-07-08T00:09:19;6.50;;;4.90;;
7316;SDS011;3699;51.462;6.696;2023-07-08T00:11:45;9.33;;;3.80;;
7316;SDS011;3699;51.462;6.696;2023-07-08T00:14:13;9.40;;;4.23;;
7316;SDS011;3699;51.462;6.696;2023-07-08T00:16:40;5.97;;;4.23;;
7316;SDS011;3699;51.462;6.696;2023-07-08T00:19:08;7.27;;;4.20;;
7316;SDS011;3699;51.462;6.696;2023-07-08T00:21:35;4.57;;;3.60;;
7316;SDS011;3699;51.462;6.696;2023-07-08T00:24:02;6.03;;;3.87;;
7316;SDS011;3699;51.462;6.696;2023-07-08T00:26:29;8.70;;;3.83;;
7316;SDS011;3699;51.462;6.696;2023-07-08T00:28:59;4.93;;;3.77;;
7316;SDS011;3699;51.462;6.696;2023-07-08T00:31:27;7.13;;;4.37;;
7316;SDS011;3699;51.462;6.696;2023-07-08T00:33:57;5.07;;;4.00;;
7316;SDS011;3699;51.462;6.696;2023-07-08T00:36:24;4.07;;;3.40;;
7316;SDS011;3699;51.462;6.696;2023-07-08T00:38:52;5.33;;;3.83;;
7316;SDS011;3699;51.462;6.696;2023-07-08T00:41:20;4.80;;;3.93;;
7316;SDS011;3699;51.462;6.696;2023-07-08T00:43:50;8.37;;;4.23;;
7316;SDS011;3699;51.462;6.696;2023-07-08T00:46:21;7.07;;;3.97;;
7316;SDS011;3699;51.462;6.696;2023-07-08T00:49:00;9.03;;;3.70;;
7316;SDS011;3699;51.462;6.696;2023-07-08T00:51:36;7.97;;;4.10;;
7316;SDS011;3699;51.462;6.696;2023-07-08T00:54:04;4.70;;;3.30;;
7316;SDS011;3699;51.462;6.696;2023-07-08T00:56:32;9.67;;;4.70;;
7316;SDS011;3699;51.462;6.696;2023-07-08T00:59:01;7.27;;;4.63;;
7316;SDS011;3699;51.462;6.696;2023-07-08T01:01:34;10.43;;;5.37;;
7316;SDS011;3699;51.462;6.696;2023-07-08T01:04:06;4.73;;;3.77;;
7316;SDS011;3699;51.462;6.696;2023-07-08T01:06:36;5.03;;;3.53;;
7316;SDS011;3699;51.462;6.696;2023-07-08T01:09:06;8.00;;;3.70;;
7316;SDS011;3699;51.462;6.696;2023-07-08T01:11:35;6.00;;;3.90;;
7316;SDS011;3699;51.462;6.696;2023-07-08T01:14:05;8.90;;;4.40;;
7316;SDS011;3699;51.462;6.696;2023-07-08T01:16:35;6.40;;;3.83;;
7316;SDS011;3699;51.462;6.696;2023-07-08T01:19:02;5.93;;;4.50;;
7316;SDS011;3699;51.462;6.696;2023-07-08T01:21:33;5.07;;;3.63;;
7316;SDS011;3699;51.462;6.696;2023-07-08T01:24:03;8.90;;;4.13;;
7316;SDS011;3699;51.462;6.696;2023-07-08T01:26:38;3.90;;;3.50;;
7316;SDS011;3699;51.462;6.696;2023-07-08T01:29:09;7.30;;;4.10;;
7316;SDS011;3699;51.462;6.696;2023-07-08T01:31:36;11.17;;;4.70;;
7316;SDS011;3699;51.462;6.696;2023-07-08T01:34:02;5.17;;;3.50;;
7316;SDS011;3699;51.462;6.696;2023-07-08T01:36:44;5.90;;;3.20;;
7316;SDS011;3699;51.462;6.696;2023-07-08T01:39:17;12.37;;;4.83;;
7316;SDS011;3699;51.462;6.696;2023-07-08T01:41:45;5.47;;;3.90;;
7316;SDS011;3699;51.462;6.696;2023-07-08T01:44:20;5.10;;;4.13;;
7316;SDS011;3699;51.462;6.696;2023-07-08T01:46:49;5.10;;;3.90;;
7316;SDS011;3699;51.462;6.696;2023-07-08T01:49:16;12.53;;;3.77;;
7316;SDS011;3699;51.462;6.696;2023-07-08T01:51:45;6.77;;;4.17;;
7316;SDS011;3699;51.462;6.696;2023-07-08T01:54:13;4.60;;;3.60;;
7316;SDS011;3699;51.462;6.696;2023-07-08T01:56:41;4.83;;;3.63;;
7316;SDS011;3699;51.462;6.696;2023-07-08T01:59:08;6.00;;;3.90;;
7316;SDS011;3699;51.462;6.696;2023-07-08T02:01:35;20.57;;;4.83;;
7316;SDS011;3699;51.462;6.696;2023-07-08T02:04:01;5.47;;;3.70;;
7316;SDS011;3699;51.462;6.696;2023-07-08T02:06:28;5.27;;;4.03;;
7316;SDS011;3699;51.462;6.696;2023-07-08T02:08:55;5.97;;;4.00;;
7316;SDS011;3699;51.462;6.696;2023-07-08T02:11:24;7.27;;;4.10;;
7316;SDS011;3699;51.462;6.696;2023-07-08T02:13:52;7.87;;;4.10;;
7316;SDS011;3699;51.462;6.696;2023-07-08T02:16:19;5.83;;;4.07;;
7316;SDS011;3699;51.462;6.696;2023-07-08T02:18:45;5.67;;;3.80;;
7316;SDS011;3699;51.462;6.696;2023-07-08T02:21:12;5.60;;;4.20;;
7316;SDS011;3699;51.462;6.696;2023-07-08T02:23:42;5.87;;;3.70;;
7316;SDS011;3699;51.462;6.696;2023-07-08T02:26:09;5.23;;;3.70;;
7316;SDS011;3699;51.462;6.696;2023-07-08T02:28:35;4.93;;;3.80;;
7316;SDS011;3699;51.462;6.696;2023-07-08T02:31:03;7.90;;;3.87;;
7316;SDS011;3699;51.462;6.696;2023-07-08T02:33:30;5.13;;;4.30;;
7316;SDS011;3699;51.462;6.696;2023-07-08T02:35:58;4.87;;;4.00;;
7316;SDS011;3699;51.462;6.696;2023-07-08T02:38:25;4.40;;;3.60;;
7316;SDS011;3699;51.462;6.696;2023-07-08T02:40:52;5.27;;;3.80;;
7316;SDS011;3699;51.462;6.696;2023-07-08T02:43:19;5.07;;;3.70;;
7316;SDS011;3699;51.462;6.696;2023-07-08T02:45:48;11.77;;;4.20;;
7316;SDS011;3699;51.462;6.696;2023-07-08T02:48:16;6.67;;;4.73;;
7316;SDS011;3699;51.462;6.696;2023-07-08T02:50:43;5.23;;;3.70;;
7316;SDS011;3699;51.462;6.696;2023-07-08T02:53:10;5.30;;;3.43;;
7316;SDS011;3699;51.462;6.696;2023-07-08T02:55:37;9.53;;;4.07;;
7316;SDS011;3699;51.462;6.696;2023-07-08T02:58:04;6.60;;;3.90;;
7316;SDS011;3699;51.462;6.696;2023-07-08T03:00:31;6.20;;;3.90;;
7316;SDS011;3699;51.462;6.696;2023-07-08T03:02:58;5.57;;;3.80;;
7316;SDS011;3699;51.462;6.696;2023-07-08T03:05:28;5.70;;;3.80;;
7316;SDS011;3699;51.462;6.696;2023-07-08T03:07:55;5.60;;;3.83;;
7316;SDS011;3699;51.462;6.696;2023-07-08T03:10:22;4.17;;;3.77;;
7316;SDS011;3699;51.462;6.696;2023-07-08T03:12:49;4.37;;;3.97;;
7316;SDS011;3699;51.462;6.696;2023-07-08T03:15:16;6.83;;;3.93;;
7316;SDS011;3699;51.462;6.696;2023-07-08T03:17:42;6.20;;;3.67;;
7316;SDS011;3699;51.462;6.696;2023-07-08T03:20:10;5.13;;;3.80;;
7316;SDS011;3699;51.462;6.696;2023-07-08T03:22:38;5.27;;;3.97;;
7316;SDS011;3699;51.462;6.696;2023-07-08T03:25:05;7.93;;;4.00;;
7316;SDS011;3699;51.462;6.696;2023-07-08T03:27:32;3.67;;;3.37;;
7316;SDS011;3699;51.462;6.696;2023-07-08T03:29:59;6.50;;;3.90;;
7316;SDS011;3699;51.462;6.696;2023-07-08T03:32:26;7.50;;;4.13;;
7316;SDS011;3699;51.462;6.696;2023-07-08T03:34:54;5.77;;;3.90;;
7316;SDS011;3699;51.462;6.696;2023-07-08T03:37:21;4.27;;;3.87;;
7316;SDS011;3699;51.462;6.696;2023-07-08T03:39:49;5.80;;;3.97;;
7316;SDS011;3699;51.462;6.696;2023-07-08T03:42:16;7.43;;;3.63;;
7316;SDS011;3699;51.462;6.696;2023-07-08T03:44:43;4.53;;;3.77;;
7316;SDS011;3699;51.462;6.696;2023-07-08T03:47:09;7.03;;;4.63;;
7316;SDS011;3699;51.462;6.696;2023-07-08T03:49:36;8.10;;;4.67;;
7316;SDS011;3699;51.462;6.696;2023-07-08T03:52:03;4.40;;;3.50;;
7316;SDS011;3699;51.462;6.696;2023-07-08T03:54:30;9.63;;;4.13;;
7316;SDS011;3699;51.462;6.696;2023-07-08T03:56:58;10.83;;;4.10;;
7316;SDS011;3699;51.462;6.696;2023-07-08T03:59:25;11.70;;;3.93;;
7316;SDS011;3699;51.462;6.696;2023-07-08T04:01:52;7.50;;;4.27;;
7316;SDS011;3699;51.462;6.696;2023-07-08T04:04:18;7.80;;;4.10;;
7316;SDS011;3699;51.462;6.696;2023-07-08T04:06:45;6.53;;;3.73;;
7316;SDS011;3699;51.462;6.696;2023-07-08T04:09:12;8.47;;;3.83;;
7316;SDS011;3699;51.462;6.696;2023-07-08T04:11:39;4.47;;;3.80;;
7316;SDS011;3699;51.462;6.696;2023-07-08T04:14:07;7.00;;;4.27;;
7316;SDS011;3699;51.462;6.696;2023-07-08T04:16:40;6.33;;;4.07;;
7316;SDS011;3699;51.462;6.696;2023-07-08T04:19:11;10.33;;;4.40;;
7316;SDS011;3699;51.462;6.696;2023-07-08T04:21:40;4.23;;;3.77;;
7316;SDS011;3699;51.462;6.696;2023-07-08T04:24:08;5.27;;;3.97;;
7316;SDS011;3699;51.462;6.696;2023-07-08T04:26:35;6.43;;;3.50;;
7316;SDS011;3699;51.462;6.696;2023-07-08T04:29:04;7.03;;;3.90;;
7316;SDS011;3699;51.462;6.696;2023-07-08T04:31:35;5.13;;;4.23;;
7316;SDS011;3699;51.462;6.696;2023-07-08T04:34:02;5.33;;;3.30;;
7316;SDS011;3699;51.462;6.696;2023-07-08T04:36:28;7.63;;;3.97;;
7316;SDS011;3699;51.462;6.696;2023-07-08T04:38:55;5.60;;;4.10;;
7316;SDS011;3699;51.462;6.696;2023-07-08T04:41:22;5.93;;;4.13;;
7316;SDS011;3699;51.462;6.696;2023-07-08T04:43:50;6.60;;;4.20;;
7316;SDS011;3699;51.462;6.696;2023-07-08T04:46:20;6.10;;;3.70;;
7316;SDS011;3699;51.462;6.696;2023-07-08T04:48:59;9.20;;;4.27;;
7316;SDS011;3699;51.462;6.696;2023-07-08T04:51:28;5.60;;;4.00;;
7316;SDS011;3699;51.462;6.696;2023-07-08T04:53:54;6.50;;;4.27;;
7316;SDS011;3699;51.462;6.696;2023-07-08T04:56:21;10.43;;;4.57;;
7316;SDS011;3699;51.462;6.696;2023-07-08T04:58:48;4.33;;;3.83;;
7316;SDS011;3699;51.462;6.696;2023-07-08T05:01:15;4.30;;;3.83;;
7316;SDS011;3699;51.462;6.696;2023-07-08T05:03:43;11.53;;;4.40;;
7316;SDS011;3699;51.462;6.696;2023-07-08T05:06:10;8.80;;;4.53;;
7316;SDS011;3699;51.462;6.696;2023-07-08T05:08:37;5.17;;;4.50;;
7316;SDS011;3699;51.462;6.696;2023-07-08T05:11:03;5.93;;;4.03;;
7316;SDS011;3699;51.462;6.696;2023-07-08T05:13:30;6.37;;;4.67;;
7316;SDS011;3699;51.462;6.696;2023-07-08T05:15:57;8.10;;;4.43;;
7316;SDS011;3699;51.462;6.696;2023-07-08T05:18:23;5.80;;;4.10;;
7316;SDS011;3699;51.462;6.696;2023-07-08T05:20:52;9.23;;;4.00;;
7316;SDS011;3699;51.462;6.696;2023-07-08T05:23:19;4.97;;;3.57;;
7316;SDS011;3699;51.462;6.696;2023-07-08T05:25:47;13.37;;;4.10;;
7316;SDS011;3699;51.462;6.696;2023-07-08T05:28:14;4.63;;;3.40;;
7316;SDS011;3699;51.462;6.696;2023-07-08T05:30:41;7.53;;;3.97;;
7316;SDS011;3699;51.462;6.696;2023-07-08T05:33:08;5.90;;;4.20;;
7316;SDS011;3699;51.462;6.696;2023-07-08T05:35:35;6.17;;;3.93;;
7316;SDS011;3699;51.462;6.696;2023-07-08T05:38:03;6.30;;;3.90;;
7316;SDS011;3699;51.462;6.696;2023-07-08T05:40:30;5.60;;;4.13;;
7316;SDS011;3699;51.462;6.696;2023-07-08T05:42:56;4.63;;;3.90;;
7316;SDS011;3699;51.462;6.696;2023-07-08T05:45:23;4.80;;;3.63;;
7316;SDS011;3699;51.462;6.696;2023-07-08T05:47:50;5.68;;;3.53;;
7316;SDS011;3699;51.462;6.696;2023-07-08T05:50:16;5.47;;;4.18;;
7316;SDS011;3699;51.462;6.696;2023-07-08T05:52:43;5.68;;;3.88;;
7316;SDS011;3699;51.462;6.696;2023-07-08T05:55:11;6.18;;;4.20;;
7316;SDS011;3699;51.462;6.696;2023-07-08T05:57:38;6.32;;;3.95;;
7316;SDS011;3699;51.462;6.696;2023-07-08T06:00:05;8.35;;;4.63;;
7316;SDS011;3699;51.462;6.696;2023-07-08T06:02:33;10.13;;;4.50;;
7316;SDS011;3699;51.462;6.696;2023-07-08T06:05:00;7.90;;;4.93;;
7316;SDS011;3699;51.462;6.696;2023-07-08T06:07:26;9.25;;;4.50;;
7316;SDS011;3699;51.462;6.696;2023-07-08T06:09:53;5.57;;;4.63;;
7316;SDS011;3699;51.462;6.696;2023-07-08T06:12:22;9.98;;;4.22;;
7316;SDS011;3699;51.462;6.696;2023-07-08T06:14:49;11.88;;;4.20;;
7316;SDS011;3699;51.462;6.696;2023-07-08T06:17:15;6.53;;;4.57;;
7316;SDS011;3699;51.462;6.696;2023-07-08T06:19:42;9.93;;;4.45;;
7316;SDS011;3699;51.462;6.696;2023-07-08T06:22:09;10.02;;;4.70;;
7316;SDS011;3699;51.462;6.696;2023-07-08T06:24:37;7.03;;;4.10;;
7316;SDS011;3699;51.462;6.696;2023-07-08T06:27:04;6.88;;;4.68;;
7316;SDS011;3699;51.462;6.696;2023-07-08T06:29:33;7.88;;;4.65;;
7316;SDS011;3699;51.462;6.696;2023-07-08T06:32:00;7.50;;;4.55;;
7316;SDS011;3699;51.462;6.696;2023-07-08T06:34:28;10.50;;;5.00;;
7316;SDS011;3699;51.462;6.696;2023-07-08T06:36:54;8.55;;;4.28;;
7316;SDS011;3699;51.462;6.696;2023-07-08T06:39:21;6.63;;;4.53;;
7316;SDS011;3699;51.462;6.696;2023-07-08T06:41:48;6.22;;;4.63;;
7316;SDS011;3699;51.462;6.696;2023-07-08T06:44:14;9.00;;;4.45;;
7316;SDS011;3699;51.462;6.696;2023-07-08T06:46:42;7.78;;;4.47;;
7316;SDS011;3699;51.462;6.696;2023-07-08T06:49:09;6.68;;;4.63;;
7316;SDS011;3699;51.462;6.696;2023-07-08T06:51:38;6.55;;;4.85;;
7316;SDS011;3699;51.462;6.696;2023-07-08T06:54:05;5.95;;;4.35;;
7316;SDS011;3699;51.462;6.696;2023-07-08T06:56:36;6.03;;;3.95;;
7316;SDS011;3699;51.462;6.696;2023-07-08T06:59:03;4.85;;;4.30;;
7316;SDS011;3699;51.462;6.696;2023-07-08T07:01:30;7.13;;;4.60;;
7316;SDS011;3699;51.462;6.696;2023-07-08T07:03:58;7.10;;;4.68;;
7316;SDS011;3699;51.462;6.696;2023-07-08T07:06:25;6.57;;;4.68;;
7316;SDS011;3699;51.462;6.696;2023-07-08T07:08:52;7.45;;;4.97;;
7316;SDS011;3699;51.462;6.696;2023-07-08T07:11:18;6.60;;;4.82;;
7316;SDS011;3699;51.462;6.696;2023-07-08T07:13:45;8.43;;;4.50;;
7316;SDS011;3699;51.462;6.696;2023-07-08T07:16:12;6.75;;;4.40;;
7316;SDS011;3699;51.462;6.696;2023-07-08T07:18:39;6.00;;;4.25;;
7316;SDS011;3699;51.462;6.696;2023-07-08T07:21:13;7.43;;;4.47;;
7316;SDS011;3699;51.462;6.696;2023-07-08T07:23:49;8.15;;;5.32;;
7316;SDS011;3699;51.462;6.696;2023-07-08T07:26:27;7.05;;;5.05;;
7316;SDS011;3699;51.462;6.696;2023-07-08T07:28:55;7.55;;;4.80;;
7316;SDS011;3699;51.462;6.696;2023-07-08T07:31:26;9.68;;;4.95;;
7316;SDS011;3699;51.462;6.696;2023-07-08T07:33:53;6.70;;;4.85;;
7316;SDS011;3699;51.462;6.696;2023-07-08T07:36:21;10.60;;;4.85;;
7316;SDS011;3699;51.462;6.696;2023-07-08T07:38:48;7.85;;;5.13;;
7316;SDS011;3699;51.462;6.696;2023-07-08T07:41:15;5.68;;;4.68;;
7316;SDS011;3699;51.462;6.696;2023-07-08T07:43:41;6.88;;;5.30;;
7316;SDS011;3699;51.462;6.696;2023-07-08T07:46:08;6.70;;;5.03;;
7316;SDS011;3699;51.462;6.696;2023-07-08T07:48:35;5.75;;;5.10;;
7316;SDS011;3699;51.462;6.696;2023-07-08T07:51:02;9.68;;;5.03;;
7316;SDS011;3699;51.462;6.696;2023-07-08T07:53:31;6.55;;;4.68;;
7316;SDS011;3699;51.462;6.696;2023-07-08T07:55:58;5.60;;;4.60;;
7316;SDS011;3699;51.462;6.696;2023-07-08T07:58:26;6.07;;;4.93;;
7316;SDS011;3699;51.462;6.696;2023-07-08T08:01:05;8.15;;;5.03;;
7316;SDS011;3699;51.462;6.696;2023-07-08T08:03:32;7.70;;;4.88;;
7316;SDS011;3699;51.462;6.696;2023-07-08T08:05:59;9.90;;;5.28;;
7316;SDS011;3699;51.462;6.696;2023-07-08T08:08:26;11.63;;;5.63;;
7316;SDS011;3699;51.462;6.696;2023-07-08T08:10:54;8.63;;;5.78;;
7316;SDS011;3699;51.462;6.696;2023-07-08T08:13:21;6.80;;;5.60;;
7316;SDS011;3699;51.462;6.696;2023-07-08T08:15:47;7.68;;;5.18;;
7316;SDS011;3699;51.462;6.696;2023-07-08T08:18:14;13.27;;;5.60;;
7316;SDS011;3699;51.462;6.696;2023-07-08T08:20:41;6.38;;;5.30;;
7316;SDS011;3699;51.462;6.696;2023-07-08T08:23:09;6.45;;;5.50;;
7316;SDS011;3699;51.462;6.696;2023-07-08T08:25:35;8.48;;;5.45;;
7316;SDS011;3699;51.462;6.696;2023-07-08T08:28:04;7.00;;;5.65;;
7316;SDS011;3699;51.462;6.696;2023-07-08T08:30:31;15.00;;;6.03;;
7316;SDS011;3699;51.462;6.696;2023-07-08T08:32:59;16.38;;;6.65;;
7316;SDS011;3699;51.462;6.696;2023-07-08T08:35:26;7.63;;;5.90;;
7316;SDS011;3699;51.462;6.696;2023-07-08T08:37:53;10.35;;;6.85;;
7316;SDS011;3699;51.462;6.696;2023-07-08T08:40:20;8.55;;;6.55;;
7316;SDS011;3699;51.462;6.696;2023-07-08T08:42:50;9.05;;;6.22;;
7316;SDS011;3699;51.462;6.696;2023-07-08T08:45:20;8.60;;;5.95;;
7316;SDS011;3699;51.462;6.696;2023-07-08T08:47:51;7.50;;;5.82;;
7316;SDS011;3699;51.462;6.696;2023-07-08T08:50:27;9.02;;;6.45;;
7316;SDS011;3699;51.462;6.696;2023-07-08T08:52:57;8.18;;;6.53;;
7316;SDS011;3699;51.462;6.696;2023-07-08T08:55:25;8.55;;;5.90;;
7316;SDS011;3699;51.462;6.696;2023-07-08T08:57:55;7.15;;;5.57;;
7316;SDS011;3699;51.462;6.696;2023-07-08T09:00:30;8.10;;;6.70;;
7316;SDS011;3699;51.462;6.696;2023-07-08T09:03:04;7.63;;;5.93;;
7316;SDS011;3699;51.462;6.696;2023-07-08T09:05:36;7.90;;;6.38;;
7316;SDS011;3699;51.462;6.696;2023-07-08T09:08:04;7.97;;;6.60;;
7316;SDS011;3699;51.462;6.696;2023-07-08T09:10:40;7.90;;;5.82;;
7316;SDS011;3699;51.462;6.696;2023-07-08T09:13:12;6.82;;;5.72;;
7316;SDS011;3699;51.462;6.696;2023-07-08T09:15:46;10.25;;;6.53;;
7316;SDS011;3699;51.462;6.696;2023-07-08T09:18:16;7.47;;;6.70;;
7316;SDS011;3699;51.462;6.696;2023-07-08T09:20:47;8.52;;;6.15;;
7316;SDS011;3699;51.462;6.696;2023-07-08T09:23:15;8.88;;;5.22;;
7316;SDS011;3699;51.462;6.696;2023-07-08T09:25:47;8.10;;;5.45;;
7316;SDS011;3699;51.462;6.696;2023-07-08T09:28:18;5.95;;;5.32;;
7316;SDS011;3699;51.462;6.696;2023-07-08T09:30:47;7.43;;;5.68;;
7316;SDS011;3699;51.462;6.696;2023-07-08T09:33:18;6.28;;;5.15;;
7316;SDS011;3699;51.462;6.696;2023-07-08T09:35:46;8.48;;;5.72;;
7316;SDS011;3699;51.462;6.696;2023-07-08T09:38:14;6.63;;;5.38;;
7316;SDS011;3699;51.462;6.696;2023-07-08T09:40:44;9.98;;;5.63;;
7316;SDS011;3699;51.462;6.696;2023-07-08T09:43:16;6.97;;;6.22;;
7316;SDS011;3699;51.462;6.696;2023-07-08T09:45:51;9.85;;;6.15;;
7316;SDS011;3699;51.462;6.696;2023-07-08T09:48:23;6.10;;;5.50;;
7316;SDS011;3699;51.462;6.696;2023-07-08T09:50:52;6.22;;;5.43;;
7316;SDS011;3699;51.462;6.696;2023-07-08T09:53:20;7.68;;;5.03;;
7316;SDS011;3699;51.462;6.696;2023-07-08T09:55:47;7.93;;;5.43;;
7316;SDS011;3699;51.462;6.696;2023-07-08T09:58:21;8.70;;;5.40;;
7316;SDS011;3699;51.462;6.696;2023-07-08T10:00:53;8.55;;;6.22;;
7316;SDS011;3699;51.462;6.696;2023-07-08T10:03:24;6.60;;;5.40;;
7316;SDS011;3699;51.462;6.696;2023-07-08T10:05:54;7.30;;;5.65;;
7316;SDS011;3699;51.462;6.696;2023-07-08T10:08:23;9.65;;;5.28;;
7316;SDS011;3699;51.462;6.696;2023-07-08T10:10:55;4.90;;;4.38;;
7316;SDS011;3699;51.462;6.696;2023-07-08T10:13:28;6.93;;;5.20;;
7316;SDS011;3699;51.462;6.696;2023-07-08T10:16:06;6.25;;;4.63;;
7316;SDS011;3699;51.462;6.696;2023-07-08T10:18:39;5.50;;;4.82;;
7316;SDS011;3699;51.462;6.696;2023-07-08T10:21:08;5.32;;;4.68;;
7316;SDS011;3699;51.462;6.696;2023-07-08T10:23:43;5.25;;;4.75;;
7316;SDS011;3699;51.462;6.696;2023-07-08T10:26:17;9.27;;;4.63;;
7316;SDS011;3699;51.462;6.696;2023-07-08T10:28:53;5.90;;;4.88;;
7316;SDS011;3699;51.462;6.696;2023-07-08T10:31:33;6.82;;;4.43;;
7316;SDS011;3699;51.462;6.696;2023-07-08T10:34:28;7.85;;;4.90;;
7316;SDS011;3699;51.462;6.696;2023-07-08T10:37:05;8.52;;;5.25;;
7316;SDS011;3699;51.462;6.696;2023-07-08T10:39:50;5.95;;;4.70;;
7316;SDS011;3699;51.462;6.696;2023-07-08T10:42:31;9.05;;;4.38;;
7316;SDS011;3699;51.462;6.696;2023-07-08T10:45:09;7.10;;;4.43;;
7316;SDS011;3699;51.462;6.696;2023-07-08T10:47:50;7.15;;;4.80;;
7316;SDS011;3699;51.462;6.696;2023-07-08T10:50:29;8.00;;;4.75;;
7316;SDS011;3699;51.462;6.696;2023-07-08T10:53:09;7.40;;;5.28;;
7316;SDS011;3699;51.462;6.696;2023-07-08T10:56:02;5.35;;;4.85;;
7316;SDS011;3699;51.462;6.696;2023-07-08T10:58:42;7.28;;;4.88;;
7316;SDS011;3699;51.462;6.696;2023-07-08T11:01:23;4.95;;;4.22;;
7316;SDS011;3699;51.462;6.696;2023-07-08T11:04:05;5.57;;;4.72;;
7316;SDS011;3699;51.462;6.696;2023-07-08T11:06:47;5.70;;;5.05;;
7316;SDS011;3699;51.462;6.696;2023-07-08T11:09:19;7.85;;;5.05;;
7316;SDS011;3699;51.462;6.696;2023-07-08T11:11:53;6.25;;;4.40;;
7316;SDS011;3699;51.462;6.696;2023-07-08T11:14:24;6.32;;;5.20;;
7316;SDS011;3699;51.462;6.696;2023-07-08T11:16:55;7.97;;;4.95;;
7316;SDS011;3699;51.462;6.696;2023-07-08T11:19:35;6.38;;;5.68;;
7316;SDS011;3699;51.462;6.696;2023-07-08T11:22:05;6.75;;;5.20;;
7316;SDS011;3699;51.462;6.696;2023-07-08T11:24:37;5.47;;;4.88;;
7316;SDS011;3699;51.462;6.696;2023-07-08T11:27:10;5.35;;;4.70;;
7316;SDS011;3699;51.462;6.696;2023-07-08T11:29:45;6.30;;;4.72;;
7316;SDS011;3699;51.462;6.696;2023-07-08T11:32:16;5.82;;;4.60;;
7316;SDS011;3699;51.462;6.696;2023-07-08T11:34:47;5.82;;;4.97;;
7316;SDS011;3699;51.462;6.696;2023-07-08T11:37:15;7.38;;;5.00;;
7316;SDS011;3699;51.462;6.696;2023-07-08T11:39:46;6.20;;;4.82;;
7316;SDS011;3699;51.462;6.696;2023-07-08T11:42:16;7.65;;;4.93;;
7316;SDS011;3699;51.462;6.696;2023-07-08T11:44:47;6.18;;;4.80;;
7316;SDS011;3699;51.462;6.696;2023-07-08T11:47:18;6.38;;;4.38;;
7316;SDS011;3699;51.462;6.696;2023-07-08T11:49:50;5.55;;;4.47;;
7316;SDS011;3699;51.462;6.696;2023-07-08T11:52:19;6.97;;;4.30;;
7316;SDS011;3699;51.462;6.696;2023-07-08T11:54:54;4.93;;;4.43;;
7316;SDS011;3699;51.462;6.696;2023-07-08T11:57:24;5.43;;;4.13;;
7316;SDS011;3699;51.462;6.696;2023-07-08T12:00:10;6.10;;;4.18;;
7316;SDS011;3699;51.462;6.696;2023-07-08T12:02:47;5.82;;;4.10;;
7316;SDS011;3699;51.462;6.696;2023-07-08T12:05:28;5.63;;;4.57;;
7316;SDS011;3699;51.462;6.696;2023-07-08T12:07:57;6.70;;;4.43;;
7316;SDS011;3699;51.462;6.696;2023-07-08T12:10:26;4.97;;;4.43;;
7316;SDS011;3699;51.462;6.696;2023-07-08T12:12:57;5.75;;;4.72;;
7316;SDS011;3699;51.462;6.696;2023-07-08T12:15:25;5.60;;;4.28;;
7316;SDS011;3699;51.462;6.696;2023-07-08T12:17:54;5.28;;;4.32;;
7316;SDS011;3699;51.462;6.696;2023-07-08T12:20:26;5.03;;;4.53;;
7316;SDS011;3699;51.462;6.696;2023-07-08T12:22:55;6.38;;;5.05;;
7316;SDS011;3699;51.462;6.696;2023-07-08T12:25:23;8.90;;;4.72;;
7316;SDS011;3699;51.462;6.696;2023-07-08T12:27:53;10.43;;;4.03;;
7316;SDS011;3699;51.462;6.696;2023-07-08T12:30:20;5.78;;;4.35;;
7316;SDS011;3699;51.462;6.696;2023-07-08T12:32:46;8.82;;;5.22;;
7316;SDS011;3699;51.462;6.696;2023-07-08T12:35:17;6.65;;;5.10;;
7316;SDS011;3699;51.462;6.696;2023-07-08T12:37:50;5.72;;;4.47;;
7316;SDS011;3699;51.462;6.696;2023-07-08T12:40:18;9.43;;;4.88;;
7316;SDS011;3699;51.462;6.696;2023-07-08T12:42:47;7.30;;;4.28;;
7316;SDS011;3699;51.462;6.696;2023-07-08T12:45:14;10.38;;;4.97;;
7316;SDS011;3699;51.462;6.696;2023-07-08T12:47:42;6.60;;;5.13;;
7316;SDS011;3699;51.462;6.696;2023-07-08T12:50:10;6.82;;;4.47;;
7316;SDS011;3699;51.462;6.696;2023-07-08T12:52:38;6.13;;;4.70;;
7316;SDS011;3699;51.462;6.696;2023-07-08T12:55:09;5.43;;;4.40;;
7316;SDS011;3699;51.462;6.696;2023-07-08T12:57:36;4.78;;;4.22;;
7316;SDS011;3699;51.462;6.696;2023-07-08T13:00:04;7.28;;;4.50;;
7316;SDS011;3699;51.462;6.696;2023-07-08T13:02:32;8.00;;;4.57;;
7316;SDS011;3699;51.462;6.696;2023-07-08T13:04:59;8.40;;;5.10;;
7316;SDS011;3699;51.462;6.696;2023-07-08T13:07:33;9.50;;;5.20;;
7316;SDS011;3699;51.462;6.696;2023-07-08T13:10:02;6.53;;;4.40;;
7316;SDS011;3699;51.462;6.696;2023-07-08T13:12:32;4.82;;;3.97;;
7316;SDS011;3699;51.462;6.696;2023-07-08T13:15:03;5.22;;;4.28;;
7316;SDS011;3699;51.462;6.696;2023-07-08T13:17:36;5.60;;;5.00;;
7316;SDS011;3699;51.462;6.696;2023-07-08T13:20:03;4.85;;;3.80;;
7316;SDS011;3699;51.462;6.696;2023-07-08T13:22:31;6.50;;;4.75;;
7316;SDS011;3699;51.462;6.696;2023-07-08T13:24:59;5.68;;;4.35;;
7316;SDS011;3699;51.462;6.696;2023-07-08T13:27:27;4.57;;;4.03;;
7316;SDS011;3699;51.462;6.696;2023-07-08T13:29:56;8.18;;;4.18;;
7316;SDS011;3699;51.462;6.696;2023-07-08T13:32:41;5.18;;;4.10;;
7316;SDS011;3699;51.462;6.696;2023-07-08T13:35:20;6.15;;;4.28;;
7316;SDS011;3699;51.462;6.696;2023-07-08T13:37:47;5.88;;;4.40;;
7316;SDS011;3699;51.462;6.696;2023-07-08T13:40:15;7.28;;;4.38;;
7316;SDS011;3699;51.462;6.696;2023-07-08T13:42:46;7.72;;;4.30;;
7316;SDS011;3699;51.462;6.696;2023-07-08T13:45:15;4.72;;;4.22;;
7316;SDS011;3699;51.462;6.696;2023-07-08T13:47:44;6.20;;;4.20;;
7316;SDS011;3699;51.462;6.696;2023-07-08T13:50:13;10.95;;;4.40;;
7316;SDS011;3699;51.462;6.696;2023-07-08T13:52:45;5.50;;;4.72;;
7316;SDS011;3699;51.462;6.696;2023-07-08T13:55:15;7.50;;;4.90;;
7316;SDS011;3699;51.462;6.696;2023-07-08T13:57:43;6.30;;;4.13;;
7316;SDS011;3699;51.462;6.696;2023-07-08T14:00:11;6.32;;;4.30;;
7316;SDS011;3699;51.462;6.696;2023-07-08T14:02:41;9.45;;;4.75;;
7316;SDS011;3699;51.462;6.696;2023-07-08T14:05:10;7.88;;;4.85;;
7316;SDS011;3699;51.462;6.696;2023-07-08T14:07:39;5.20;;;4.30;;
7316;SDS011;3699;51.462;6.696;2023-07-08T14:10:08;6.22;;;4.18;;
7316;SDS011;3699;51.462;6.696;2023-07-08T14:12:37;5.63;;;4.53;;
7316;SDS011;3699;51.462;6.696;2023-07-08T14:15:04;6.07;;;4.60;;
7316;SDS011;3699;51.462;6.696;2023-07-08T14:17:31;5.40;;;4.35;;
7316;SDS011;3699;51.462;6.696;2023-07-08T14:20:00;9.32;;;4.20;;
7316;SDS011;3699;51.462;6.696;2023-07-08T14:22:27;5.60;;;4.65;;
7316;SDS011;3699;51.462;6.696;2023-07-08T14:24:55;5.28;;;3.85;;
7316;SDS011;3699;51.462;6.696;2023-07-08T14:27:27;8.75;;;4.90;;
7316;SDS011;3699;51.462;6.696;2023-07-08T14:29:53;6.32;;;4.53;;
7316;SDS011;3699;51.462;6.696;2023-07-08T14:32:20;8.20;;;4.50;;
7316;SDS011;3699;51.462;6.696;2023-07-08T14:34:52;4.95;;;4.45;;
7316;SDS011;3699;51.462;6.696;2023-07-08T14:37:23;6.57;;;4.68;;
7316;SDS011;3699;51.462;6.696;2023-07-08T14:39:50;5.80;;;4.50;;
7316;SDS011;3699;51.462;6.696;2023-07-08T14:42:18;8.15;;;4.45;;
7316;SDS011;3699;51.462;6.696;2023-07-08T14:44:46;4.85;;;3.85;;
7316;SDS011;3699;51.462;6.696;2023-07-08T14:47:15;6.25;;;4.43;;
7316;SDS011;3699;51.462;6.696;2023-07-08T14:49:43;7.25;;;4.13;;
7316;SDS011;3699;51.462;6.696;2023-07-08T14:52:10;5.13;;;4.28;;
7316;SDS011;3699;51.462;6.696;2023-07-08T14:54:38;5.85;;;4.28;;
7316;SDS011;3699;51.462;6.696;2023-07-08T14:57:06;7.43;;;5.22;;
7316;SDS011;3699;51.462;6.696;2023-07-08T14:59:33;10.23;;;5.15;;
7316;SDS011;3699;51.462;6.696;2023-07-08T15:02:02;7.93;;;4.53;;
7316;SDS011;3699;51.462;6.696;2023-07-08T15:04:41;6.57;;;4.95;;
7316;SDS011;3699;51.462;6.696;2023-07-08T15:07:08;5.63;;;4.50;;
7316;SDS011;3699;51.462;6.696;2023-07-08T15:09:35;6.10;;;4.85;;
7316;SDS011;3699;51.462;6.696;2023-07-08T15:12:03;9.07;;;5.25;;
7316;SDS011;3699;51.462;6.696;2023-07-08T15:14:31;7.35;;;5.20;;
7316;SDS011;3699;51.462;6.696;2023-07-08T15:16:58;7.72;;;5.50;;
7316;SDS011;3699;51.462;6.696;2023-07-08T15:19:25;6.30;;;5.28;;
7316;SDS011;3699;51.462;6.696;2023-07-08T15:21:53;8.23;;;5.57;;
7316;SDS011;3699;51.462;6.696;2023-07-08T15:24:20;7.18;;;4.85;;
7316;SDS011;3699;51.462;6.696;2023-07-08T15:26:49;9.93;;;5.53;;
7316;SDS011;3699;51.462;6.696;2023-07-08T15:29:18;7.10;;;4.93;;